sensor_id;sensor_type;location;lat;lon;timestamp;temperature;humidity
13944;DHT22;7044;53.286;8.534;2023-05-29T00:01:10;10.40;99.90
13944;DHT22;7044;53.286;8.534;2023-05-29T00:03:36;10.30;99.90
13944;DHT22;7044;53.286;8.534;2023-05-29T00:06:03;10.30;99.90
13944;DHT22;7044;53.286;8.534;2023-05-29T00:08:31;10.20;99.90
13944;DHT22;7044;53.286;8.534;2023-05-29T00:10:59;10.10;99.90
13944;DHT22;7044;53.286;8.534;2023-05-29T00:13:26;10.10;99.90
13944;DHT22;7044;53.286;8.534;2023-05-29T00:15:53;10.10;99.90
13944;DHT22;7044;53.286;8.534;2023-05-29T00:18:20;10.10;99.90
13944;DHT22;7044;53.286;8.534;2023-05-29T00:20:46;10.20;99.90
13944;DHT22;7044;53.286;8.534;2023-05-29T00:23:13;10.20;99.90
13944;DHT22;7044;53.286;8.534;2023-05-29T00:25:40;10.10;99.90
13944;DHT22;7044;53.286;8.534;2023-05-29T00:28:09;10.10;99.90
13944;DHT22;7044;53.286;8.534;2023-05-29T00:30:37;10.00;99.90
13944;DHT22;7044;53.286;8.534;2023-05-29T00:33:04;9.90;99.90
13944;DHT22;7044;53.286;8.534;2023-05-29T00:35:31;9.90;99.90
13944;DHT22;7044;53.286;8.534;2023-05-29T00:37:58;10.00;99.90
13944;DHT22;7044;53.286;8.534;2023-05-29T00:40:25;9.90;99.90
13944;DHT22;7044;53.286;8.534;2023-05-29T00:42:52;10.00;99.90
13944;DHT22;7044;53.286;8.534;2023-05-29T00:45:20;9.90;99.90
13944;DHT22;7044;53.286;8.534;2023-05-29T00:47:46;9.80;99.90
13944;DHT22;7044;53.286;8.534;2023-05-29T00:50:14;9.70;99.90
13944;DHT22;7044;53.286;8.534;2023-05-29T00:52:43;9.70;99.90
13944;DHT22;7044;53.286;8.534;2023-05-29T00:55:11;9.70;99.90
13944;DHT22;7044;53.286;8.534;2023-05-29T00:57:39;9.70;99.90
13944;DHT22;7044;53.286;8.534;2023-05-29T01:00:07;9.80;99.90
13944;DHT22;7044;53.286;8.534;2023-05-29T01:02:37;9.80;99.90
13944;DHT22;7044;53.286;8.534;2023-05-29T01:05:06;9.80;99.90
13944;DHT22;7044;53.286;8.534;2023-05-29T01:07:35;9.80;99.90
13944;DHT22;7044;53.286;8.534;2023-05-29T01:10:02;9.80;99.90
13944;DHT22;7044;53.286;8.534;2023-05-29T01:12:35;9.70;99.90
13944;DHT22;7044;53.286;8.534;2023-05-29T01:15:17;9.70;99.90
13944;DHT22;7044;53.286;8.534;2023-05-29T01:17:56;9.90;99.90
13944;DHT22;7044;53.286;8.534;2023-05-29T01:20:30;9.90;99.90
13944;DHT22;7044;53.286;8.534;2023-05-29T01:23:10;9.80;99.90
13944;DHT22;7044;53.286;8.534;2023-05-29T01:25:50;9.80;99.90
13944;DHT22;7044;53.286;8.534;2023-05-29T01:28:25;9.80;99.90
13944;DHT22;7044;53.286;8.534;2023-05-29T01:30:54;9.90;99.90
13944;DHT22;7044;53.286;8.534;2023-05-29T01:33:23;9.80;99.90
13944;DHT22;7044;53.286;8.534;2023-05-29T01:35:50;9.80;99.90
13944;DHT22;7044;53.286;8.534;2023-05-29T01:38:17;9.70;99.90
13944;DHT22;7044;53.286;8.534;2023-05-29T01:40:44;9.70;99.90
13944;DHT22;7044;53.286;8.534;2023-05-29T01:43:12;9.60;99.90
13944;DHT22;7044;53.286;8.534;2023-05-29T01:45:42;9.50;99.90
13944;DHT22;7044;53.286;8.534;2023-05-29T01:48:10;9.60;99.90
13944;DHT22;7044;53.286;8.534;2023-05-29T01:50:37;9.60;99.90
13944;DHT22;7044;53.286;8.534;2023-05-29T01:53:04;9.50;99.90
13944;DHT22;7044;53.286;8.534;2023-05-29T01:55:31;9.60;99.90
13944;DHT22;7044;53.286;8.534;2023-05-29T01:57:57;9.60;99.90
13944;DHT22;7044;53.286;8.534;2023-05-29T02:00:25;9.60;99.90
13944;DHT22;7044;53.286;8.534;2023-05-29T02:02:53;9.60;99.90
13944;DHT22;7044;53.286;8.534;2023-05-29T02:05:20;9.50;99.90
13944;DHT22;7044;53.286;8.534;2023-05-29T02:07:47;9.50;99.90
13944;DHT22;7044;53.286;8.534;2023-05-29T02:10:14;9.40;99.90
13944;DHT22;7044;53.286;8.534;2023-05-29T02:12:41;9.40;99.90
13944;DHT22;7044;53.286;8.534;2023-05-29T02:15:08;9.50;99.90
13944;DHT22;7044;53.286;8.534;2023-05-29T02:17:36;9.30;99.90
13944;DHT22;7044;53.286;8.534;2023-05-29T02:20:05;9.30;99.90
13944;DHT22;7044;53.286;8.534;2023-05-29T02:22:32;9.30;99.90
13944;DHT22;7044;53.286;8.534;2023-05-29T02:24:59;9.20;99.90
13944;DHT22;7044;53.286;8.534;2023-05-29T02:27:26;9.20;99.90
13944;DHT22;7044;53.286;8.534;2023-05-29T02:29:53;9.10;99.90
13944;DHT22;7044;53.286;8.534;2023-05-29T02:32:20;9.00;99.90
13944;DHT22;7044;53.286;8.534;2023-05-29T02:34:47;8.90;99.90
13944;DHT22;7044;53.286;8.534;2023-05-29T02:37:16;8.80;99.90
13944;DHT22;7044;53.286;8.534;2023-05-29T02:39:43;8.80;99.90
13944;DHT22;7044;53.286;8.534;2023-05-29T02:42:10;8.80;99.90
13944;DHT22;7044;53.286;8.534;2023-05-29T02:44:37;8.70;99.90
13944;DHT22;7044;53.286;8.534;2023-05-29T02:47:04;8.70;99.90
13944;DHT22;7044;53.286;8.534;2023-05-29T02:49:31;8.70;99.90
13944;DHT22;7044;53.286;8.534;2023-05-29T02:51:58;8.80;99.90
13944;DHT22;7044;53.286;8.534;2023-05-29T02:54:26;8.70;99.90
13944;DHT22;7044;53.286;8.534;2023-05-29T02:56:53;8.70;99.90
13944;DHT22;7044;53.286;8.534;2023-05-29T02:59:20;8.60;99.90
13944;DHT22;7044;53.286;8.534;2023-05-29T03:01:46;8.60;99.90
13944;DHT22;7044;53.286;8.534;2023-05-29T03:04:14;8.60;99.90
13944;DHT22;7044;53.286;8.534;2023-05-29T03:06:42;8.70;99.90
13944;DHT22;7044;53.286;8.534;2023-05-29T03:09:10;8.70;99.90
13944;DHT22;7044;53.286;8.534;2023-05-29T03:11:39;8.70;99.90
13944;DHT22;7044;53.286;8.534;2023-05-29T03:14:06;8.60;99.90
13944;DHT22;7044;53.286;8.534;2023-05-29T03:16:33;8.60;99.90
13944;DHT22;7044;53.286;8.534;2023-05-29T03:19:01;8.60;99.90
13944;DHT22;7044;53.286;8.534;2023-05-29T03:21:28;8.60;99.90
13944;DHT22;7044;53.286;8.534;2023-05-29T03:23:56;8.60;99.90
13944;DHT22;7044;53.286;8.534;2023-05-29T03:26:23;8.60;99.90
13944;DHT22;7044;53.286;8.534;2023-05-29T03:28:52;8.60;99.90
13944;DHT22;7044;53.286;8.534;2023-05-29T03:31:19;8.60;99.90
13944;DHT22;7044;53.286;8.534;2023-05-29T03:33:46;8.60;99.90
13944;DHT22;7044;53.286;8.534;2023-05-29T03:36:13;8.60;99.90
13944;DHT22;7044;53.286;8.534;2023-05-29T03:38:42;8.60;99.90
13944;DHT22;7044;53.286;8.534;2023-05-29T03:41:09;8.50;99.90
13944;DHT22;7044;53.286;8.534;2023-05-29T03:43:36;8.40;99.90
13944;DHT22;7044;53.286;8.534;2023-05-29T03:46:04;8.40;99.90
13944;DHT22;7044;53.286;8.534;2023-05-29T03:48:31;8.50;99.90
13944;DHT22;7044;53.286;8.534;2023-05-29T03:50:57;8.60;99.90
13944;DHT22;7044;53.286;8.534;2023-05-29T03:53:24;8.60;99.90
13944;DHT22;7044;53.286;8.534;2023-05-29T03:55:51;8.70;99.90
13944;DHT22;7044;53.286;8.534;2023-05-29T03:58:18;8.60;99.90
13944;DHT22;7044;53.286;8.534;2023-05-29T04:00:45;8.60;99.90
13944;DHT22;7044;53.286;8.534;2023-05-29T04:03:13;8.60;99.90
13944;DHT22;7044;53.286;8.534;2023-05-29T04:05:40;8.60;99.90
13944;DHT22;7044;53.286;8.534;2023-05-29T04:08:07;8.70;99.90
13944;DHT22;7044;53.286;8.534;2023-05-29T04:10:34;8.80;99.90
13944;DHT22;7044;53.286;8.534;2023-05-29T04:13:02;8.90;99.90
13944;DHT22;7044;53.286;8.534;2023-05-29T04:15:29;9.00;99.90
13944;DHT22;7044;53.286;8.534;2023-05-29T04:17:55;9.00;99.90
13944;DHT22;7044;53.286;8.534;2023-05-29T04:20:24;8.90;99.90
13944;DHT22;7044;53.286;8.534;2023-05-29T04:22:51;9.00;99.90
13944;DHT22;7044;53.286;8.534;2023-05-29T04:25:18;9.00;99.90
13944;DHT22;7044;53.286;8.534;2023-05-29T04:27:45;8.90;99.90
13944;DHT22;7044;53.286;8.534;2023-05-29T04:30:15;9.00;99.90
13944;DHT22;7044;53.286;8.534;2023-05-29T04:32:42;9.00;99.90
13944;DHT22;7044;53.286;8.534;2023-05-29T04:35:09;9.00;99.90
13944;DHT22;7044;53.286;8.534;2023-05-29T04:37:37;9.20;99.90
13944;DHT22;7044;53.286;8.534;2023-05-29T04:40:05;9.20;99.90
13944;DHT22;7044;53.286;8.534;2023-05-29T04:42:34;9.30;99.90
13944;DHT22;7044;53.286;8.534;2023-05-29T04:45:01;9.30;99.90
13944;DHT22;7044;53.286;8.534;2023-05-29T04:47:29;9.30;99.90
13944;DHT22;7044;53.286;8.534;2023-05-29T04:49:58;9.40;99.90
13944;DHT22;7044;53.286;8.534;2023-05-29T04:52:25;9.30;99.90
13944;DHT22;7044;53.286;8.534;2023-05-29T04:54:53;9.40;99.90
13944;DHT22;7044;53.286;8.534;2023-05-29T04:57:22;9.40;99.90
13944;DHT22;7044;53.286;8.534;2023-05-29T04:59:48;9.50;99.90
13944;DHT22;7044;53.286;8.534;2023-05-29T05:02:15;9.50;99.90
13944;DHT22;7044;53.286;8.534;2023-05-29T05:04:42;9.60;99.90
13944;DHT22;7044;53.286;8.534;2023-05-29T05:07:11;9.70;99.90
13944;DHT22;7044;53.286;8.534;2023-05-29T05:09:37;9.90;99.90
13944;DHT22;7044;53.286;8.534;2023-05-29T05:12:06;9.90;99.90
13944;DHT22;7044;53.286;8.534;2023-05-29T05:14:33;10.00;99.90
13944;DHT22;7044;53.286;8.534;2023-05-29T05:16:59;10.00;99.90
13944;DHT22;7044;53.286;8.534;2023-05-29T05:19:26;10.00;99.90
13944;DHT22;7044;53.286;8.534;2023-05-29T05:21:53;10.00;99.90
13944;DHT22;7044;53.286;8.534;2023-05-29T05:24:20;10.10;99.90
13944;DHT22;7044;53.286;8.534;2023-05-29T05:26:47;10.20;99.90
13944;DHT22;7044;53.286;8.534;2023-05-29T05:29:15;10.30;99.90
13944;DHT22;7044;53.286;8.534;2023-05-29T05:31:41;10.30;99.90
13944;DHT22;7044;53.286;8.534;2023-05-29T05:34:08;10.40;99.90
13944;DHT22;7044;53.286;8.534;2023-05-29T05:36:35;10.30;99.90
13944;DHT22;7044;53.286;8.534;2023-05-29T05:39:02;10.40;99.90
13944;DHT22;7044;53.286;8.534;2023-05-29T05:41:29;10.50;99.90
13944;DHT22;7044;53.286;8.534;2023-05-29T05:43:56;10.50;99.90
13944;DHT22;7044;53.286;8.534;2023-05-29T05:46:24;10.60;99.90
13944;DHT22;7044;53.286;8.534;2023-05-29T05:48:51;10.70;99.90
13944;DHT22;7044;53.286;8.534;2023-05-29T05:51:18;10.70;99.90
13944;DHT22;7044;53.286;8.534;2023-05-29T05:53:45;10.80;99.90
13944;DHT22;7044;53.286;8.534;2023-05-29T05:56:11;10.90;99.90
13944;DHT22;7044;53.286;8.534;2023-05-29T05:58:38;10.90;99.90
13944;DHT22;7044;53.286;8.534;2023-05-29T06:01:05;10.80;99.90
13944;DHT22;7044;53.286;8.534;2023-05-29T06:03:35;10.80;99.90
13944;DHT22;7044;53.286;8.534;2023-05-29T06:06:03;10.90;99.90
13944;DHT22;7044;53.286;8.534;2023-05-29T06:08:30;11.00;99.90
13944;DHT22;7044;53.286;8.534;2023-05-29T06:10:57;11.10;99.90
13944;DHT22;7044;53.286;8.534;2023-05-29T06:13:23;11.10;99.90
13944;DHT22;7044;53.286;8.534;2023-05-29T06:15:50;11.30;99.90
13944;DHT22;7044;53.286;8.534;2023-05-29T06:18:17;11.30;99.90
13944;DHT22;7044;53.286;8.534;2023-05-29T06:20:45;11.50;99.90
13944;DHT22;7044;53.286;8.534;2023-05-29T06:23:12;11.50;99.90
13944;DHT22;7044;53.286;8.534;2023-05-29T06:25:39;11.50;99.90
13944;DHT22;7044;53.286;8.534;2023-05-29T06:28:06;11.60;99.90
13944;DHT22;7044;53.286;8.534;2023-05-29T06:30:33;11.70;99.90
13944;DHT22;7044;53.286;8.534;2023-05-29T06:33:00;11.70;99.90
13944;DHT22;7044;53.286;8.534;2023-05-29T06:35:27;11.70;99.90
13944;DHT22;7044;53.286;8.534;2023-05-29T06:37:55;11.80;99.90
13944;DHT22;7044;53.286;8.534;2023-05-29T06:40:22;11.90;99.90
13944;DHT22;7044;53.286;8.534;2023-05-29T06:42:49;11.90;99.90
13944;DHT22;7044;53.286;8.534;2023-05-29T06:45:16;12.00;99.90
13944;DHT22;7044;53.286;8.534;2023-05-29T06:47:43;11.90;99.90
13944;DHT22;7044;53.286;8.534;2023-05-29T06:50:10;12.00;99.90
13944;DHT22;7044;53.286;8.534;2023-05-29T06:52:37;12.10;99.90
13944;DHT22;7044;53.286;8.534;2023-05-29T06:55:06;12.00;99.90
13944;DHT22;7044;53.286;8.534;2023-05-29T06:57:33;12.00;99.90
13944;DHT22;7044;53.286;8.534;2023-05-29T07:00:00;12.10;99.90
13944;DHT22;7044;53.286;8.534;2023-05-29T07:02:27;12.10;99.90
13944;DHT22;7044;53.286;8.534;2023-05-29T07:04:54;12.00;99.90
13944;DHT22;7044;53.286;8.534;2023-05-29T07:07:21;12.00;99.90
13944;DHT22;7044;53.286;8.534;2023-05-29T07:09:47;12.00;99.90
13944;DHT22;7044;53.286;8.534;2023-05-29T07:12:16;12.00;99.90
13944;DHT22;7044;53.286;8.534;2023-05-29T07:14:42;12.00;99.90
13944;DHT22;7044;53.286;8.534;2023-05-29T07:17:11;12.10;99.90
13944;DHT22;7044;53.286;8.534;2023-05-29T07:19:38;12.20;99.90
13944;DHT22;7044;53.286;8.534;2023-05-29T07:22:05;12.10;99.90
13944;DHT22;7044;53.286;8.534;2023-05-29T07:24:31;12.10;99.90
13944;DHT22;7044;53.286;8.534;2023-05-29T07:26:58;11.90;99.90
13944;DHT22;7044;53.286;8.534;2023-05-29T07:29:26;11.90;99.90
13944;DHT22;7044;53.286;8.534;2023-05-29T07:31:53;12.00;99.90
13944;DHT22;7044;53.286;8.534;2023-05-29T07:34:23;12.20;99.90
13944;DHT22;7044;53.286;8.534;2023-05-29T07:36:57;12.20;99.90
13944;DHT22;7044;53.286;8.534;2023-05-29T07:39:25;12.10;99.90
13944;DHT22;7044;53.286;8.534;2023-05-29T07:41:52;12.10;99.90
13944;DHT22;7044;53.286;8.534;2023-05-29T07:44:19;12.20;99.90
13944;DHT22;7044;53.286;8.534;2023-05-29T07:46:48;12.30;99.90
13944;DHT22;7044;53.286;8.534;2023-05-29T07:49:14;12.20;99.90
13944;DHT22;7044;53.286;8.534;2023-05-29T07:51:41;12.20;99.90
13944;DHT22;7044;53.286;8.534;2023-05-29T07:54:08;12.20;99.90
13944;DHT22;7044;53.286;8.534;2023-05-29T07:56:35;12.30;99.90
13944;DHT22;7044;53.286;8.534;2023-05-29T07:59:03;12.30;99.90
13944;DHT22;7044;53.286;8.534;2023-05-29T08:01:29;12.30;99.90
13944;DHT22;7044;53.286;8.534;2023-05-29T08:03:58;12.30;99.90
13944;DHT22;7044;53.286;8.534;2023-05-29T08:06:24;12.30;99.90
13944;DHT22;7044;53.286;8.534;2023-05-29T08:08:52;12.30;99.90
13944;DHT22;7044;53.286;8.534;2023-05-29T08:11:18;12.30;99.90
13944;DHT22;7044;53.286;8.534;2023-05-29T08:13:45;12.30;99.90
13944;DHT22;7044;53.286;8.534;2023-05-29T08:16:12;12.30;99.90
13944;DHT22;7044;53.286;8.534;2023-05-29T08:18:42;12.50;99.90
13944;DHT22;7044;53.286;8.534;2023-05-29T08:21:13;12.50;99.90
13944;DHT22;7044;53.286;8.534;2023-05-29T08:23:40;12.50;99.90
13944;DHT22;7044;53.286;8.534;2023-05-29T08:26:07;12.60;99.90
13944;DHT22;7044;53.286;8.534;2023-05-29T08:28:33;12.50;99.90
13944;DHT22;7044;53.286;8.534;2023-05-29T08:31:00;12.40;99.90
13944;DHT22;7044;53.286;8.534;2023-05-29T08:33:27;12.40;99.90
13944;DHT22;7044;53.286;8.534;2023-05-29T08:35:54;12.40;99.90
13944;DHT22;7044;53.286;8.534;2023-05-29T08:38:22;12.50;99.90
13944;DHT22;7044;53.286;8.534;2023-05-29T08:40:51;12.50;99.90
13944;DHT22;7044;53.286;8.534;2023-05-29T08:43:21;12.60;99.90
13944;DHT22;7044;53.286;8.534;2023-05-29T08:45:53;12.70;99.90
13944;DHT22;7044;53.286;8.534;2023-05-29T08:48:22;12.80;99.90
13944;DHT22;7044;53.286;8.534;2023-05-29T08:50:53;13.30;99.90
13944;DHT22;7044;53.286;8.534;2023-05-29T08:53:22;13.00;99.90
13944;DHT22;7044;53.286;8.534;2023-05-29T08:55:50;13.10;99.90
13944;DHT22;7044;53.286;8.534;2023-05-29T08:58:19;13.10;99.90
13944;DHT22;7044;53.286;8.534;2023-05-29T09:00:47;13.10;99.90
13944;DHT22;7044;53.286;8.534;2023-05-29T09:03:14;13.10;99.90
13944;DHT22;7044;53.286;8.534;2023-05-29T09:05:41;13.10;99.90
13944;DHT22;7044;53.286;8.534;2023-05-29T09:08:09;13.10;99.90
13944;DHT22;7044;53.286;8.534;2023-05-29T09:10:39;13.10;99.90
13944;DHT22;7044;53.286;8.534;2023-05-29T09:13:07;13.10;99.90
13944;DHT22;7044;53.286;8.534;2023-05-29T09:15:35;13.00;99.90
13944;DHT22;7044;53.286;8.534;2023-05-29T09:18:04;13.10;99.90
13944;DHT22;7044;53.286;8.534;2023-05-29T09:20:31;13.00;99.90
13944;DHT22;7044;53.286;8.534;2023-05-29T09:22:59;13.00;99.90
13944;DHT22;7044;53.286;8.534;2023-05-29T09:25:28;13.00;99.90
13944;DHT22;7044;53.286;8.534;2023-05-29T09:27:59;13.10;99.90
13944;DHT22;7044;53.286;8.534;2023-05-29T09:30:34;13.20;99.90
13944;DHT22;7044;53.286;8.534;2023-05-29T09:33:02;13.20;99.90
13944;DHT22;7044;53.286;8.534;2023-05-29T09:35:33;13.20;99.90
13944;DHT22;7044;53.286;8.534;2023-05-29T09:38:01;13.20;99.90
13944;DHT22;7044;53.286;8.534;2023-05-29T09:40:30;13.20;99.90
13944;DHT22;7044;53.286;8.534;2023-05-29T09:43:03;13.30;99.90
13944;DHT22;7044;53.286;8.534;2023-05-29T09:45:33;13.40;99.90
13944;DHT22;7044;53.286;8.534;2023-05-29T09:48:02;13.40;99.90
13944;DHT22;7044;53.286;8.534;2023-05-29T09:50:29;13.20;99.90
13944;DHT22;7044;53.286;8.534;2023-05-29T09:52:59;13.30;99.90
13944;DHT22;7044;53.286;8.534;2023-05-29T09:55:27;13.50;99.90
13944;DHT22;7044;53.286;8.534;2023-05-29T09:57:55;13.50;99.90
13944;DHT22;7044;53.286;8.534;2023-05-29T10:00:24;13.60;99.90
13944;DHT22;7044;53.286;8.534;2023-05-29T10:02:51;13.70;99.90
13944;DHT22;7044;53.286;8.534;2023-05-29T10:05:18;13.70;99.90
13944;DHT22;7044;53.286;8.534;2023-05-29T10:07:47;13.80;99.90
13944;DHT22;7044;53.286;8.534;2023-05-29T10:10:18;13.70;99.90
13944;DHT22;7044;53.286;8.534;2023-05-29T10:12:48;13.80;99.90
13944;DHT22;7044;53.286;8.534;2023-05-29T10:15:16;14.10;99.90
13944;DHT22;7044;53.286;8.534;2023-05-29T10:17:50;14.20;99.90
13944;DHT22;7044;53.286;8.534;2023-05-29T10:20:19;14.30;99.90
13944;DHT22;7044;53.286;8.534;2023-05-29T10:22:49;14.20;99.90
13944;DHT22;7044;53.286;8.534;2023-05-29T10:25:18;14.10;99.90
13944;DHT22;7044;53.286;8.534;2023-05-29T10:27:45;14.10;99.90
13944;DHT22;7044;53.286;8.534;2023-05-29T10:30:20;14.10;99.90
13944;DHT22;7044;53.286;8.534;2023-05-29T10:33:06;14.10;99.90
13944;DHT22;7044;53.286;8.534;2023-05-29T10:35:42;14.10;99.90
13944;DHT22;7044;53.286;8.534;2023-05-29T10:38:12;14.10;99.90
13944;DHT22;7044;53.286;8.534;2023-05-29T10:40:42;14.20;99.90
13944;DHT22;7044;53.286;8.534;2023-05-29T10:43:09;14.20;99.90
13944;DHT22;7044;53.286;8.534;2023-05-29T10:45:56;14.30;99.90
13944;DHT22;7044;53.286;8.534;2023-05-29T10:48:54;14.40;99.90
13944;DHT22;7044;53.286;8.534;2023-05-29T10:51:26;14.20;99.90
13944;DHT22;7044;53.286;8.534;2023-05-29T10:53:54;13.90;99.90
13944;DHT22;7044;53.286;8.534;2023-05-29T10:56:23;14.00;99.90
13944;DHT22;7044;53.286;8.534;2023-05-29T10:58:57;14.10;99.90
13944;DHT22;7044;53.286;8.534;2023-05-29T11:01:27;13.90;99.90
13944;DHT22;7044;53.286;8.534;2023-05-29T11:04:25;13.80;99.90
13944;DHT22;7044;53.286;8.534;2023-05-29T11:06:53;14.00;99.90
13944;DHT22;7044;53.286;8.534;2023-05-29T11:09:27;14.20;99.90
13944;DHT22;7044;53.286;8.534;2023-05-29T11:12:15;14.30;99.90
13944;DHT22;7044;53.286;8.534;2023-05-29T11:14:55;14.30;99.90
13944;DHT22;7044;53.286;8.534;2023-05-29T11:17:29;14.30;99.90
13944;DHT22;7044;53.286;8.534;2023-05-29T11:20:00;14.40;99.90
13944;DHT22;7044;53.286;8.534;2023-05-29T11:22:34;14.20;99.90
13944;DHT22;7044;53.286;8.534;2023-05-29T11:25:08;14.40;99.90
13944;DHT22;7044;53.286;8.534;2023-05-29T11:27:35;14.40;99.90
13944;DHT22;7044;53.286;8.534;2023-05-29T11:30:04;14.40;99.90
13944;DHT22;7044;53.286;8.534;2023-05-29T11:32:34;14.40;99.90
13944;DHT22;7044;53.286;8.534;2023-05-29T11:35:05;14.40;99.90
13944;DHT22;7044;53.286;8.534;2023-05-29T11:37:34;14.20;99.90
13944;DHT22;7044;53.286;8.534;2023-05-29T11:40:03;14.00;99.90
13944;DHT22;7044;53.286;8.534;2023-05-29T11:42:31;14.10;99.90
13944;DHT22;7044;53.286;8.534;2023-05-29T11:45:10;14.20;99.90
13944;DHT22;7044;53.286;8.534;2023-05-29T11:47:53;14.20;99.90
13944;DHT22;7044;53.286;8.534;2023-05-29T11:50:23;14.30;99.90
13944;DHT22;7044;53.286;8.534;2023-05-29T11:52:50;14.10;99.90
13944;DHT22;7044;53.286;8.534;2023-05-29T11:55:18;14.20;99.90
13944;DHT22;7044;53.286;8.534;2023-05-29T11:57:46;14.20;99.90
13944;DHT22;7044;53.286;8.534;2023-05-29T12:00:14;14.20;99.90
13944;DHT22;7044;53.286;8.534;2023-05-29T12:02:41;14.20;99.90
13944;DHT22;7044;53.286;8.534;2023-05-29T12:05:09;14.30;99.90
13944;DHT22;7044;53.286;8.534;2023-05-29T12:07:47;14.40;99.90
13944;DHT22;7044;53.286;8.534;2023-05-29T12:10:16;14.30;99.90
13944;DHT22;7044;53.286;8.534;2023-05-29T12:12:47;14.40;99.90
13944;DHT22;7044;53.286;8.534;2023-05-29T12:15:14;14.40;99.90
13944;DHT22;7044;53.286;8.534;2023-05-29T12:17:41;14.50;99.90
13944;DHT22;7044;53.286;8.534;2023-05-29T12:20:10;14.50;99.90
13944;DHT22;7044;53.286;8.534;2023-05-29T12:22:38;14.60;99.90
13944;DHT22;7044;53.286;8.534;2023-05-29T12:25:09;14.70;99.90
13944;DHT22;7044;53.286;8.534;2023-05-29T12:27:38;14.70;99.90
13944;DHT22;7044;53.286;8.534;2023-05-29T12:30:09;14.60;99.90
13944;DHT22;7044;53.286;8.534;2023-05-29T12:32:37;14.60;99.90
13944;DHT22;7044;53.286;8.534;2023-05-29T12:35:15;14.60;99.90
13944;DHT22;7044;53.286;8.534;2023-05-29T12:37:43;14.60;99.90
13944;DHT22;7044;53.286;8.534;2023-05-29T12:40:14;14.60;99.90
13944;DHT22;7044;53.286;8.534;2023-05-29T12:42:42;14.70;99.90
13944;DHT22;7044;53.286;8.534;2023-05-29T12:45:09;14.50;99.90
13944;DHT22;7044;53.286;8.534;2023-05-29T12:47:36;14.30;99.90
13944;DHT22;7044;53.286;8.534;2023-05-29T12:50:24;14.30;99.90
13944;DHT22;7044;53.286;8.534;2023-05-29T12:52:58;14.50;99.90
13944;DHT22;7044;53.286;8.534;2023-05-29T12:55:27;14.60;99.90
13944;DHT22;7044;53.286;8.534;2023-05-29T12:57:55;14.70;99.90
13944;DHT22;7044;53.286;8.534;2023-05-29T13:00:22;14.70;99.90
13944;DHT22;7044;53.286;8.534;2023-05-29T13:02:49;14.80;99.90
13944;DHT22;7044;53.286;8.534;2023-05-29T13:05:16;14.80;99.90
13944;DHT22;7044;53.286;8.534;2023-05-29T13:07:45;15.00;99.90
13944;DHT22;7044;53.286;8.534;2023-05-29T13:10:13;15.00;99.90
13944;DHT22;7044;53.286;8.534;2023-05-29T13:12:41;15.10;99.90
13944;DHT22;7044;53.286;8.534;2023-05-29T13:15:09;15.20;99.90
13944;DHT22;7044;53.286;8.534;2023-05-29T13:17:36;15.10;99.90
13944;DHT22;7044;53.286;8.534;2023-05-29T13:20:07;15.20;99.90
13944;DHT22;7044;53.286;8.534;2023-05-29T13:22:35;15.10;99.90
13944;DHT22;7044;53.286;8.534;2023-05-29T13:25:02;15.00;99.90
13944;DHT22;7044;53.286;8.534;2023-05-29T13:27:32;15.00;99.90
13944;DHT22;7044;53.286;8.534;2023-05-29T13:30:00;15.10;99.90
13944;DHT22;7044;53.286;8.534;2023-05-29T13:32:27;15.00;99.90
13944;DHT22;7044;53.286;8.534;2023-05-29T13:34:54;14.90;99.90
13944;DHT22;7044;53.286;8.534;2023-05-29T13:37:21;14.90;99.90
13944;DHT22;7044;53.286;8.534;2023-05-29T13:39:48;14.90;99.90
13944;DHT22;7044;53.286;8.534;2023-05-29T13:42:15;14.90;99.90
13944;DHT22;7044;53.286;8.534;2023-05-29T13:44:42;14.80;99.90
13944;DHT22;7044;53.286;8.534;2023-05-29T13:47:10;14.90;99.90
13944;DHT22;7044;53.286;8.534;2023-05-29T13:49:37;14.90;99.90
13944;DHT22;7044;53.286;8.534;2023-05-29T13:52:04;14.80;99.90
13944;DHT22;7044;53.286;8.534;2023-05-29T13:54:31;14.90;99.90
13944;DHT22;7044;53.286;8.534;2023-05-29T13:57:01;15.00;99.90
13944;DHT22;7044;53.286;8.534;2023-05-29T13:59:28;15.10;99.90
13944;DHT22;7044;53.286;8.534;2023-05-29T14:01:55;15.10;99.90
13944;DHT22;7044;53.286;8.534;2023-05-29T14:04:23;15.00;99.90
13944;DHT22;7044;53.286;8.534;2023-05-29T14:06:50;14.80;99.90
13944;DHT22;7044;53.286;8.534;2023-05-29T14:09:17;14.80;99.90
13944;DHT22;7044;53.286;8.534;2023-05-29T14:11:51;15.00;99.90
13944;DHT22;7044;53.286;8.534;2023-05-29T14:14:18;15.10;99.90
13944;DHT22;7044;53.286;8.534;2023-05-29T14:16:45;15.10;99.90
13944;DHT22;7044;53.286;8.534;2023-05-29T14:19:12;15.10;99.90
13944;DHT22;7044;53.286;8.534;2023-05-29T14:21:40;15.20;99.90
13944;DHT22;7044;53.286;8.534;2023-05-29T14:24:07;15.20;99.90
13944;DHT22;7044;53.286;8.534;2023-05-29T14:26:34;15.10;99.90
13944;DHT22;7044;53.286;8.534;2023-05-29T14:29:00;15.10;99.90
13944;DHT22;7044;53.286;8.534;2023-05-29T14:31:27;15.10;99.90
13944;DHT22;7044;53.286;8.534;2023-05-29T14:33:54;15.10;99.90
13944;DHT22;7044;53.286;8.534;2023-05-29T14:36:21;15.10;99.90
13944;DHT22;7044;53.286;8.534;2023-05-29T14:38:49;15.20;99.90
13944;DHT22;7044;53.286;8.534;2023-05-29T14:41:16;15.10;99.90
13944;DHT22;7044;53.286;8.534;2023-05-29T14:43:43;15.00;99.90
13944;DHT22;7044;53.286;8.534;2023-05-29T14:46:10;14.90;99.90
13944;DHT22;7044;53.286;8.534;2023-05-29T14:48:37;14.90;99.90
13944;DHT22;7044;53.286;8.534;2023-05-29T14:51:04;14.60;99.90
13944;DHT22;7044;53.286;8.534;2023-05-29T14:53:31;14.60;99.90
13944;DHT22;7044;53.286;8.534;2023-05-29T14:55:59;14.70;99.90
13944;DHT22;7044;53.286;8.534;2023-05-29T14:58:26;14.70;99.90
13944;DHT22;7044;53.286;8.534;2023-05-29T15:00:53;14.80;99.90
13944;DHT22;7044;53.286;8.534;2023-05-29T15:03:20;14.80;99.90
13944;DHT22;7044;53.286;8.534;2023-05-29T15:05:50;14.80;99.90
13944;DHT22;7044;53.286;8.534;2023-05-29T15:08:17;14.80;99.90
13944;DHT22;7044;53.286;8.534;2023-05-29T15:10:43;14.70;99.90
13944;DHT22;7044;53.286;8.534;2023-05-29T15:13:12;14.80;99.90
13944;DHT22;7044;53.286;8.534;2023-05-29T15:15:38;14.70;99.90
13944;DHT22;7044;53.286;8.534;2023-05-29T15:18:05;14.60;99.90
13944;DHT22;7044;53.286;8.534;2023-05-29T15:20:32;14.80;99.90
13944;DHT22;7044;53.286;8.534;2023-05-29T15:22:59;14.90;99.90
13944;DHT22;7044;53.286;8.534;2023-05-29T15:25:26;14.70;99.90
13944;DHT22;7044;53.286;8.534;2023-05-29T15:27:52;14.80;99.90
13944;DHT22;7044;53.286;8.534;2023-05-29T15:30:21;14.60;99.90
13944;DHT22;7044;53.286;8.534;2023-05-29T15:32:48;14.40;99.90
13944;DHT22;7044;53.286;8.534;2023-05-29T15:35:15;14.60;99.90
13944;DHT22;7044;53.286;8.534;2023-05-29T15:37:43;14.60;99.90
13944;DHT22;7044;53.286;8.534;2023-05-29T15:40:10;14.70;99.90
13944;DHT22;7044;53.286;8.534;2023-05-29T15:42:37;14.70;99.90
13944;DHT22;7044;53.286;8.534;2023-05-29T15:45:05;14.80;99.90
13944;DHT22;7044;53.286;8.534;2023-05-29T15:47:34;14.70;99.90
13944;DHT22;7044;53.286;8.534;2023-05-29T15:50:01;14.70;99.90
13944;DHT22;7044;53.286;8.534;2023-05-29T15:52:27;14.70;99.90
13944;DHT22;7044;53.286;8.534;2023-05-29T15:54:55;14.80;99.90
13944;DHT22;7044;53.286;8.534;2023-05-29T15:57:21;14.80;99.90